Terminal Aerodrome Forecast
Issued by NWS

Home | Current Version | Previous Version | Text Only | Print | Product List | Glossary On
Versions: 1 2 3 4 5 6 7 8 9 10 11 12 13 14 15 16 17 18 19 20 21 22 23 24
000
FTUS45 KRIW 080528
TAFPNA
TAF
KPNA 080528Z 0806/0906 VRB05KT P6SM VCSH SCT080 BKN150
     FM080900 VRB05KT P6SM VCFG FEW005 SCT050
     FM081700 15008KT P6SM VCSH SCT040 BKN090
     FM081900 VRB12G22KT P6SM VCTS SCT040CB BKN060
     FM090300 VRB06KT P6SM VCSH BKN060
      AMD LTD TO CLD VIS AND WIND=

USA.gov is the U.S. government's official web portal to all federal, state and local government web resources and services.